createdAt,value
2023-03-29T00:02:11.395Z,100375.16
2023-03-29T00:04:39.482Z,100363.66
2023-03-29T00:07:08.275Z,100363.59
2023-03-29T00:09:35.840Z,100373.50
2023-03-29T00:12:04.010Z,100374.25
2023-03-29T00:14:31.543Z,100361.25
2023-03-29T00:16:59.273Z,100360.50
2023-03-29T00:19:26.996Z,100356.56
2023-03-29T00:21:54.469Z,100359.31
2023-03-29T00:24:23.864Z,100364.16
2023-03-29T00:26:51.584Z,100363.38
2023-03-29T00:29:19.150Z,100360.19
2023-03-29T00:31:52.424Z,100354.38
2023-03-29T00:34:21.000Z,100359.44
2023-03-29T00:36:52.999Z,100359.41
2023-03-29T00:39:21.159Z,100351.25
2023-03-29T00:41:50.064Z,100349.22
2023-03-29T00:44:54.994Z,100356.84
2023-03-29T00:47:42.616Z,100357.47
2023-03-29T00:50:17.060Z,100343.41
2023-03-29T00:52:47.559Z,100355.34
2023-03-29T00:55:18.794Z,100355.78
2023-03-29T00:57:46.890Z,100352.28
2023-03-29T01:00:18.211Z,100348.00
2023-03-29T01:02:51.118Z,100338.03
2023-03-29T01:05:22.720Z,100339.41
2023-03-29T01:07:59.455Z,100337.19
2023-03-29T01:10:37.728Z,100339.63
2023-03-29T01:13:09.651Z,100331.16
2023-03-29T01:15:39.018Z,100331.06
2023-03-29T01:18:06.881Z,100318.75
2023-03-29T01:21:23.768Z,100318.97
2023-03-29T01:24:24.850Z,100314.19
2023-03-29T01:27:14.770Z,100319.22
2023-03-29T01:29:54.240Z,100320.78
2023-03-29T01:32:25.144Z,100325.16
2023-03-29T01:34:59.986Z,100316.16
2023-03-29T01:37:32.419Z,100316.78
2023-03-29T01:40:00.856Z,100316.34
2023-03-29T01:42:40.831Z,100321.16
2023-03-29T01:45:56.185Z,100316.47
2023-03-29T01:48:29.592Z,100318.72
2023-03-29T01:51:05.526Z,100310.91
2023-03-29T01:53:40.609Z,100311.28
2023-03-29T01:56:12.548Z,100307.63
2023-03-29T01:58:44.806Z,100310.59
2023-03-29T02:01:17.691Z,100313.94
2023-03-29T02:03:50.021Z,100310.75
2023-03-29T02:06:20.671Z,100315.75
2023-03-29T02:08:48.728Z,100312.78
2023-03-29T02:11:16.328Z,100315.91
2023-03-29T02:13:44.028Z,100300.41
2023-03-29T02:16:13.229Z,100304.47
2023-03-29T02:18:46.562Z,100315.53
2023-03-29T02:21:24.424Z,100314.75
2023-03-29T02:23:54.756Z,100316.47
2023-03-29T02:26:23.991Z,100313.19
2023-03-29T02:28:52.826Z,100311.06
2023-03-29T02:31:34.023Z,100307.38
2023-03-29T02:34:43.509Z,100308.09
2023-03-29T02:37:15.783Z,100316.00
2023-03-29T02:39:43.921Z,100308.25
2023-03-29T02:42:11.522Z,100310.53
2023-03-29T02:44:41.317Z,100314.19
2023-03-29T02:47:25.253Z,100326.25
2023-03-29T02:49:53.118Z,100324.34
2023-03-29T02:52:27.513Z,100320.56
2023-03-29T02:54:55.814Z,100330.84
2023-03-29T02:57:26.819Z,100327.75
2023-03-29T02:59:55.750Z,100330.97
2023-03-29T03:02:27.910Z,100330.66
2023-03-29T03:04:55.483Z,100337.97
2023-03-29T03:07:24.923Z,100332.22
2023-03-29T03:09:52.751Z,100336.66
2023-03-29T03:12:20.320Z,100335.94
2023-03-29T03:14:48.329Z,100332.81
2023-03-29T03:17:15.834Z,100338.25
2023-03-29T03:19:43.357Z,100335.53
2023-03-29T03:22:11.643Z,100334.16
2023-03-29T03:24:39.060Z,100336.84
2023-03-29T03:27:08.517Z,100341.91
2023-03-29T03:29:38.493Z,100340.66
2023-03-29T03:32:06.496Z,100339.31
2023-03-29T03:34:36.378Z,100337.03
2023-03-29T03:37:04.055Z,100338.56
2023-03-29T03:39:32.651Z,100338.25
2023-03-29T03:42:00.406Z,100341.13
2023-03-29T03:44:28.616Z,100347.88
2023-03-29T03:46:56.706Z,100343.72
2023-03-29T03:49:24.403Z,100356.97
2023-03-29T03:51:53.154Z,100360.22
2023-03-29T03:54:20.551Z,100356.88
2023-03-29T03:56:49.124Z,100360.94
2023-03-29T03:59:17.088Z,100357.19
2023-03-29T04:01:45.384Z,100352.41
2023-03-29T04:04:14.458Z,100363.50
2023-03-29T04:06:44.170Z,100360.78
2023-03-29T04:09:14.330Z,100349.50
2023-03-29T04:11:42.412Z,100356.75
2023-03-29T04:14:11.231Z,100360.94
2023-03-29T04:16:39.855Z,100355.94
2023-03-29T04:19:08.393Z,100356.75
2023-03-29T04:21:35.942Z,100353.00
2023-03-29T04:24:03.717Z,100354.72
2023-03-29T04:26:31.939Z,100351.63
2023-03-29T04:29:01.420Z,100351.41
2023-03-29T04:31:30.993Z,100351.06
2023-03-29T04:34:00.412Z,100356.97
2023-03-29T04:36:28.363Z,100376.06
2023-03-29T04:38:56.276Z,100366.66
2023-03-29T04:41:26.003Z,100359.25
2023-03-29T04:43:56.074Z,100365.69
2023-03-29T04:46:27.054Z,100376.56
2023-03-29T04:48:56.132Z,100372.41
2023-03-29T04:51:24.788Z,100377.44
2023-03-29T04:53:52.380Z,100376.41
2023-03-29T04:56:19.849Z,100374.81
2023-03-29T04:58:49.778Z,100377.78
2023-03-29T05:01:17.861Z,100371.12
2023-03-29T05:03:45.969Z,100379.34
2023-03-29T05:06:14.269Z,100378.34
2023-03-29T05:08:41.921Z,100371.59
2023-03-29T05:11:10.915Z,100375.38
2023-03-29T05:13:38.636Z,100378.94
2023-03-29T05:16:06.969Z,100375.53
2023-03-29T05:18:34.701Z,100369.37
2023-03-29T05:21:04.643Z,100373.59
2023-03-29T05:23:32.663Z,100373.59
2023-03-29T05:26:01.862Z,100378.94
2023-03-29T05:28:29.598Z,100360.44
2023-03-29T05:31:05.161Z,100359.94
2023-03-29T05:33:34.613Z,100359.44
2023-03-29T05:36:05.184Z,100360.06
2023-03-29T05:38:34.675Z,100364.53
2023-03-29T05:41:03.492Z,100366.78
2023-03-29T05:43:34.074Z,100367.69
2023-03-29T05:46:02.100Z,100367.16
2023-03-29T05:48:30.096Z,100365.56
2023-03-29T05:50:57.859Z,100380.97
2023-03-29T05:53:27.527Z,100375.97
2023-03-29T05:55:55.170Z,100381.31
2023-03-29T05:58:23.058Z,100381.75
2023-03-29T06:00:51.299Z,100379.50
2023-03-29T06:03:23.743Z,100383.28
2023-03-29T06:06:04.905Z,100385.94
2023-03-29T06:08:34.012Z,100382.47
2023-03-29T06:11:05.194Z,100391.94
2023-03-29T06:13:35.089Z,100382.97
2023-03-29T06:16:02.492Z,100392.75
2023-03-29T06:18:30.186Z,100390.06
2023-03-29T06:20:57.918Z,100382.94
2023-03-29T06:23:25.910Z,100392.28
2023-03-29T06:25:53.660Z,100400.25
2023-03-29T06:28:21.899Z,100401.56
2023-03-29T06:30:49.961Z,100397.38
2023-03-29T06:33:18.846Z,100404.84
2023-03-29T06:35:48.627Z,100391.94
2023-03-29T06:38:16.719Z,100396.03
2023-03-29T06:40:45.630Z,100405.22
2023-03-29T06:43:14.149Z,100397.38
2023-03-29T06:45:43.468Z,100399.47
2023-03-29T06:48:12.405Z,100394.25
2023-03-29T06:50:41.398Z,100395.38
2023-03-29T06:53:09.441Z,100394.41
2023-03-29T06:55:36.862Z,100396.41
2023-03-29T06:58:09.265Z,100399.47
2023-03-29T07:00:39.133Z,100399.94
2023-03-29T07:03:09.931Z,100416.16
2023-03-29T07:05:40.846Z,100407.19
2023-03-29T07:08:08.778Z,100410.50
2023-03-29T07:10:39.534Z,100414.09
2023-03-29T07:13:12.165Z,100424.31
2023-03-29T07:15:41.824Z,100428.62
2023-03-29T07:18:10.900Z,100428.66
2023-03-29T07:20:39.074Z,100427.56
2023-03-29T07:23:08.130Z,100438.00
2023-03-29T07:25:36.454Z,100434.28
2023-03-29T07:28:04.834Z,100438.34
2023-03-29T07:30:32.836Z,100445.22
2023-03-29T07:33:05.866Z,100437.25
2023-03-29T07:35:34.022Z,100439.53
2023-03-29T07:38:01.850Z,100442.97
2023-03-29T07:40:29.515Z,100433.03
2023-03-29T07:43:11.058Z,100437.06
2023-03-29T07:45:42.372Z,100434.09
2023-03-29T07:48:10.495Z,100437.75
2023-03-29T07:50:39.163Z,100440.03
2023-03-29T07:53:07.279Z,100444.81
2023-03-29T07:55:35.326Z,100442.19
2023-03-29T07:58:04.369Z,100443.50
2023-03-29T08:00:34.217Z,100441.91
2023-03-29T08:03:04.299Z,100436.13
2023-03-29T08:05:40.899Z,100435.97
2023-03-29T08:08:10.053Z,100438.09
2023-03-29T08:10:39.452Z,100430.44
2023-03-29T08:13:09.643Z,100435.03
2023-03-29T08:15:39.604Z,100426.97
2023-03-29T08:18:08.486Z,100437.78
2023-03-29T08:20:36.340Z,100435.44
2023-03-29T08:23:04.809Z,100430.00
2023-03-29T08:25:32.957Z,100427.31
2023-03-29T08:28:00.523Z,100429.19
2023-03-29T08:30:29.160Z,100426.81
2023-03-29T08:32:56.976Z,100423.91
2023-03-29T08:35:24.595Z,100429.75
2023-03-29T08:37:52.867Z,100431.09
2023-03-29T08:40:22.420Z,100420.09
2023-03-29T08:43:14.364Z,100419.50
2023-03-29T08:45:52.169Z,100416.34
2023-03-29T08:48:29.967Z,100420.59
2023-03-29T08:51:18.083Z,100416.22
2023-03-29T08:54:00.624Z,100411.59
2023-03-29T08:56:33.500Z,100413.53
2023-03-29T08:59:03.490Z,100400.78
2023-03-29T09:01:38.395Z,100410.44
2023-03-29T09:04:17.096Z,100405.03
2023-03-29T09:06:45.407Z,100400.66
2023-03-29T09:09:16.027Z,100397.13
2023-03-29T09:12:02.817Z,100402.78
2023-03-29T09:14:52.733Z,100401.84
2023-03-29T09:17:49.052Z,100388.53
2023-03-29T09:20:33.248Z,100384.94
2023-03-29T09:23:22.462Z,100388.63
2023-03-29T09:26:03.059Z,100374.22
2023-03-29T09:28:38.248Z,100371.31
2023-03-29T09:31:10.268Z,100377.97
2023-03-29T09:33:45.033Z,100373.38
2023-03-29T09:36:24.183Z,100376.72
2023-03-29T09:38:54.406Z,100369.84
2023-03-29T09:41:44.106Z,100367.28
2023-03-29T09:46:53.958Z,100370.22
2023-03-29T09:49:27.418Z,100362.25
2023-03-29T09:51:58.185Z,100360.91
2023-03-29T09:54:26.083Z,100351.22
2023-03-29T09:56:54.615Z,100359.63
2023-03-29T09:59:22.731Z,100357.78
2023-03-29T10:01:50.299Z,100355.66
2023-03-29T10:04:18.104Z,100356.19
2023-03-29T10:06:50.290Z,100338.97
2023-03-29T10:09:24.082Z,100339.34
2023-03-29T10:11:53.944Z,100328.75
2023-03-29T10:14:37.135Z,100326.28
2023-03-29T10:17:07.121Z,100325.06
2023-03-29T10:19:36.090Z,100326.84
2023-03-29T10:22:23.322Z,100319.75
2023-03-29T10:24:52.880Z,100333.91
2023-03-29T10:27:31.379Z,100327.72
2023-03-29T10:30:01.030Z,100325.37
2023-03-29T10:32:33.636Z,100322.97
2023-03-29T10:35:13.334Z,100314.69
2023-03-29T10:37:45.283Z,100312.25
2023-03-29T10:40:24.746Z,100311.25
2023-03-29T10:42:54.014Z,100306.13
2023-03-29T10:45:26.501Z,100302.34
2023-03-29T10:47:56.842Z,100299.91
2023-03-29T10:50:26.708Z,100296.22
2023-03-29T10:52:54.207Z,100296.44
2023-03-29T10:55:22.141Z,100297.16
2023-03-29T10:57:56.269Z,100297.22
2023-03-29T11:00:33.384Z,100302.75
2023-03-29T11:03:23.549Z,100292.53
2023-03-29T11:05:58.727Z,100294.13
2023-03-29T11:08:43.456Z,100283.12
2023-03-29T11:11:13.814Z,100293.09
2023-03-29T11:13:48.023Z,100279.91
2023-03-29T11:16:23.775Z,100271.94
2023-03-29T11:19:21.857Z,100281.03
2023-03-29T11:22:04.684Z,100274.97
2023-03-29T11:24:38.285Z,100281.41
2023-03-29T11:27:36.950Z,100276.78
2023-03-29T11:30:13.666Z,100271.09
2023-03-29T11:32:48.546Z,100268.41
2023-03-29T11:35:28.398Z,100254.09
2023-03-29T11:38:02.212Z,100261.19
2023-03-29T11:40:57.678Z,100264.03
2023-03-29T11:43:31.186Z,100262.41
2023-03-29T11:46:21.757Z,100263.75
2023-03-29T11:48:54.233Z,100256.81
2023-03-29T11:52:01.067Z,100256.75
2023-03-29T11:54:34.499Z,100246.84
2023-03-29T11:57:14.839Z,100241.84
2023-03-29T12:00:18.989Z,100237.84
2023-03-29T12:02:57.018Z,100242.50
2023-03-29T12:05:27.441Z,100233.72
2023-03-29T12:08:07.278Z,100231.28
2023-03-29T12:10:57.683Z,100222.16
2023-03-29T12:13:38.842Z,100223.56
2023-03-29T12:16:20.677Z,100223.09
2023-03-29T12:18:50.493Z,100218.06
2023-03-29T12:21:22.738Z,100215.00
2023-03-29T12:23:51.933Z,100208.12
2023-03-29T12:26:34.356Z,100204.62
2023-03-29T12:29:15.634Z,100196.91
2023-03-29T12:32:04.380Z,100204.84
2023-03-29T12:34:58.546Z,100196.19
2023-03-29T12:37:36.041Z,100193.50
2023-03-29T12:40:15.592Z,100189.56
2023-03-29T12:43:02.538Z,100183.34
2023-03-29T12:45:38.124Z,100184.88
2023-03-29T12:48:07.553Z,100190.72
2023-03-29T12:50:48.375Z,100193.97
2023-03-29T12:53:19.012Z,100198.34
2023-03-29T12:55:55.145Z,100189.28
2023-03-29T12:58:40.613Z,100190.25
2023-03-29T13:01:36.971Z,100193.72
2023-03-29T13:04:13.847Z,100182.87
2023-03-29T13:06:47.539Z,100185.78
2023-03-29T13:09:35.290Z,100175.75
2023-03-29T13:12:11.718Z,100169.84
2023-03-29T13:14:45.442Z,100162.22
2023-03-29T13:17:22.814Z,100156.94
2023-03-29T13:20:12.515Z,100168.25
2023-03-29T13:22:47.929Z,100161.50
2023-03-29T13:25:34.392Z,100157.03
2023-03-29T13:28:12.262Z,100146.47
2023-03-29T13:30:43.833Z,100155.94
2023-03-29T13:33:30.089Z,100152.75
2023-03-29T13:36:20.047Z,100150.81
2023-03-29T13:38:49.538Z,100149.56
2023-03-29T13:41:51.745Z,100146.81
2023-03-29T13:44:22.238Z,100135.53
2023-03-29T13:47:02.149Z,100126.41
2023-03-29T13:49:31.733Z,100129.16
2023-03-29T13:52:05.388Z,100136.13
2023-03-29T13:54:37.513Z,100128.44
2023-03-29T13:57:08.869Z,100128.72
2023-03-29T13:59:45.188Z,100131.25
2023-03-29T14:02:29.523Z,100120.53
2023-03-29T14:04:59.923Z,100121.25
2023-03-29T14:07:29.053Z,100122.72
2023-03-29T14:09:58.682Z,100125.88
2023-03-29T14:12:29.531Z,100119.91
2023-03-29T14:15:00.976Z,100116.84
2023-03-29T14:17:29.250Z,100113.06
2023-03-29T14:19:58.924Z,100112.88
2023-03-29T14:22:31.282Z,100110.88
2023-03-29T14:25:02.844Z,100113.75
2023-03-29T14:27:31.852Z,100107.00
2023-03-29T14:29:59.973Z,100100.16
2023-03-29T14:32:29.626Z,100110.84
2023-03-29T14:34:58.005Z,100111.28
2023-03-29T14:37:27.712Z,100105.16
2023-03-29T14:39:56.445Z,100108.19
2023-03-29T14:42:28.429Z,100110.53
2023-03-29T14:45:04.278Z,100117.44
2023-03-29T14:47:33.165Z,100100.00
2023-03-29T14:50:01.676Z,100096.28
2023-03-29T14:52:30.823Z,100094.47
2023-03-29T14:55:02.344Z,100093.72
2023-03-29T14:57:35.471Z,100103.47
2023-03-29T15:00:28.443Z,100100.59
2023-03-29T15:03:01.480Z,100088.31
2023-03-29T15:05:33.899Z,100090.59
2023-03-29T15:08:02.343Z,100077.59
2023-03-29T15:10:32.900Z,100086.31
2023-03-29T15:13:02.743Z,100075.34
2023-03-29T15:15:32.263Z,100077.19
2023-03-29T15:18:00.491Z,100071.59
2023-03-29T15:20:29.945Z,100087.38
2023-03-29T15:23:14.461Z,100077.16
2023-03-29T15:25:59.287Z,100073.63
2023-03-29T15:28:28.411Z,100070.47
2023-03-29T15:31:07.975Z,100069.97
2023-03-29T15:33:38.502Z,100068.75
2023-03-29T15:36:08.131Z,100066.16
2023-03-29T15:38:43.888Z,100066.50
2023-03-29T15:41:14.202Z,100068.00
2023-03-29T15:43:42.659Z,100057.69
2023-03-29T15:46:14.028Z,100050.28
2023-03-29T15:48:42.290Z,100049.63
2023-03-29T15:51:12.511Z,100043.59
2023-03-29T15:53:40.416Z,100048.66
2023-03-29T15:56:11.324Z,100042.84
2023-03-29T15:58:39.196Z,100047.09
2023-03-29T16:01:34.152Z,100047.66
2023-03-29T16:04:02.851Z,100043.38
2023-03-29T16:06:30.833Z,100052.03
2023-03-29T16:08:58.274Z,100043.38
2023-03-29T16:11:28.386Z,100040.50
2023-03-29T16:13:56.596Z,100035.94
2023-03-29T16:16:24.357Z,100040.56
2023-03-29T16:18:52.092Z,100040.19
2023-03-29T16:21:22.235Z,100037.47
2023-03-29T16:23:50.036Z,100037.56
2023-03-29T16:26:17.856Z,100039.28
2023-03-29T16:28:45.409Z,100036.09
2023-03-29T16:31:13.643Z,100026.94
2023-03-29T16:33:41.621Z,100024.16
2023-03-29T16:36:09.903Z,100030.59
2023-03-29T16:38:37.532Z,100030.44
2023-03-29T16:41:05.598Z,100028.38
2023-03-29T16:43:33.204Z,100035.19
2023-03-29T16:46:00.660Z,100037.37
2023-03-29T16:48:28.517Z,100033.56
2023-03-29T16:50:56.020Z,100037.94
2023-03-29T16:53:23.737Z,100046.09
2023-03-29T16:55:51.565Z,100042.81
2023-03-29T16:58:19.179Z,100034.50
2023-03-29T17:00:48.479Z,100048.03
2023-03-29T17:03:16.861Z,100041.84
2023-03-29T17:05:52.117Z,100044.78
2023-03-29T17:08:20.293Z,100042.81
2023-03-29T17:10:52.755Z,100041.84
2023-03-29T17:13:22.043Z,100040.25
2023-03-29T17:15:53.770Z,100032.78
2023-03-29T17:18:22.645Z,100031.75
2023-03-29T17:20:51.326Z,100039.78
2023-03-29T17:23:18.834Z,100043.59
2023-03-29T17:25:46.824Z,100039.94
2023-03-29T17:28:14.415Z,100046.28
2023-03-29T17:30:46.218Z,100046.59
2023-03-29T17:33:14.278Z,100038.47
2023-03-29T17:35:44.919Z,100046.94
2023-03-29T17:38:12.473Z,100041.25
2023-03-29T17:40:40.143Z,100045.62
2023-03-29T17:43:07.588Z,100046.91
2023-03-29T17:45:35.550Z,100042.56
2023-03-29T17:48:06.077Z,100043.22
2023-03-29T17:50:34.418Z,100044.09
2023-03-29T17:53:02.011Z,100048.75
2023-03-29T17:55:29.666Z,100050.09
2023-03-29T17:57:57.212Z,100046.59
2023-03-29T18:00:24.867Z,100054.03
2023-03-29T18:02:52.860Z,100055.00
2023-03-29T18:05:20.396Z,100064.22
2023-03-29T18:07:47.809Z,100066.53
2023-03-29T18:10:15.843Z,100071.72
2023-03-29T18:12:43.250Z,100074.66
2023-03-29T18:15:11.245Z,100076.03
2023-03-29T18:17:39.159Z,100075.13
2023-03-29T18:20:11.112Z,100084.56
2023-03-29T18:22:40.075Z,100094.13
2023-03-29T18:25:09.510Z,100079.09
2023-03-29T18:27:38.310Z,100079.59
2023-03-29T18:30:08.644Z,100084.34
2023-03-29T18:32:36.781Z,100085.69
2023-03-29T18:35:05.049Z,100083.50
2023-03-29T18:37:33.166Z,100088.66
2023-03-29T18:40:00.608Z,100096.44
2023-03-29T18:42:28.249Z,100090.81
2023-03-29T18:44:57.180Z,100084.47
2023-03-29T18:47:24.666Z,100080.59
2023-03-29T18:49:52.367Z,100088.72
2023-03-29T18:52:20.327Z,100087.16
2023-03-29T18:54:47.744Z,100093.03
2023-03-29T18:57:15.439Z,100085.56
2023-03-29T18:59:43.403Z,100090.56
2023-03-29T19:02:11.181Z,100083.53
2023-03-29T19:04:39.013Z,100085.97
2023-03-29T19:07:08.845Z,100087.53
2023-03-29T19:09:36.266Z,100100.84
2023-03-29T19:12:04.075Z,100098.41
2023-03-29T19:14:31.920Z,100100.97
2023-03-29T19:16:59.482Z,100094.25
2023-03-29T19:19:27.778Z,100092.06
2023-03-29T19:21:57.699Z,100091.91
2023-03-29T19:24:27.450Z,100098.37
2023-03-29T19:26:56.560Z,100095.13
2023-03-29T19:29:24.230Z,100096.59
2023-03-29T19:31:52.013Z,100101.56
2023-03-29T19:34:22.865Z,100099.47
2023-03-29T19:36:51.571Z,100099.38
2023-03-29T19:39:19.385Z,100100.12
2023-03-29T19:41:47.390Z,100099.41
2023-03-29T19:44:15.667Z,100089.38
2023-03-29T19:46:43.365Z,100087.22
2023-03-29T19:49:13.680Z,100079.81
2023-03-29T19:51:42.379Z,100084.53
2023-03-29T19:54:12.200Z,100083.19
2023-03-29T19:56:40.731Z,100083.09
2023-03-29T19:59:11.002Z,100073.03
2023-03-29T20:01:40.653Z,100077.69
2023-03-29T20:04:09.211Z,100075.59
2023-03-29T20:06:36.803Z,100076.62
2023-03-29T20:09:05.209Z,100076.31
2023-03-29T20:11:32.962Z,100063.06
2023-03-29T20:14:00.670Z,100070.50
2023-03-29T20:16:29.790Z,100066.72
2023-03-29T20:18:57.528Z,100070.41
2023-03-29T20:21:25.066Z,100065.88
2023-03-29T20:23:52.644Z,100075.97
2023-03-29T20:26:20.309Z,100067.50
2023-03-29T20:28:47.933Z,100066.56
2023-03-29T20:31:15.867Z,100067.53
2023-03-29T20:33:44.480Z,100064.59
2023-03-29T20:36:12.316Z,100064.63
2023-03-29T20:38:39.730Z,100060.56
2023-03-29T20:41:09.253Z,100058.50
2023-03-29T20:43:37.876Z,100060.94
2023-03-29T20:46:14.308Z,100056.19
2023-03-29T20:48:54.680Z,100052.34
2023-03-29T20:51:28.113Z,100055.44
2023-03-29T20:54:04.491Z,100063.22
2023-03-29T20:56:34.335Z,100064.56
2023-03-29T20:59:02.974Z,100058.81
2023-03-29T21:01:30.780Z,100043.19
2023-03-29T21:03:58.307Z,100057.50
2023-03-29T21:06:26.096Z,100048.31
2023-03-29T21:08:53.562Z,100056.00
2023-03-29T21:11:21.045Z,100051.72
2023-03-29T21:13:48.807Z,100052.59
2023-03-29T21:16:16.233Z,100054.78
2023-03-29T21:18:43.707Z,100060.16
2023-03-29T21:21:11.911Z,100050.34
2023-03-29T21:23:39.458Z,100051.22
2023-03-29T21:26:07.808Z,100047.31
2023-03-29T21:28:37.586Z,100038.78
2023-03-29T21:31:06.287Z,100038.44
2023-03-29T21:33:34.900Z,100035.28
2023-03-29T21:36:02.745Z,100046.38
2023-03-29T21:38:30.685Z,100040.00
2023-03-29T21:40:58.267Z,100036.72
2023-03-29T21:43:26.163Z,100036.72
2023-03-29T21:45:53.671Z,100031.72
2023-03-29T21:48:21.043Z,100036.50
2023-03-29T21:50:50.098Z,100048.47
2023-03-29T21:53:18.302Z,100040.75
2023-03-29T21:55:48.549Z,100058.56
2023-03-29T21:58:16.698Z,100044.53
2023-03-29T22:00:45.466Z,100041.00
2023-03-29T22:03:14.389Z,100037.81
2023-03-29T22:05:42.039Z,100039.16
2023-03-29T22:08:12.315Z,100041.00
2023-03-29T22:10:43.044Z,100043.87
2023-03-29T22:13:10.455Z,100039.75
2023-03-29T22:15:38.939Z,100043.03
2023-03-29T22:18:06.764Z,100042.44
2023-03-29T22:20:34.243Z,100051.75
2023-03-29T22:23:01.772Z,100051.38
2023-03-29T22:25:29.474Z,100054.41
2023-03-29T22:27:56.907Z,100048.56
2023-03-29T22:30:24.265Z,100047.31
2023-03-29T22:32:52.023Z,100048.03
2023-03-29T22:35:19.806Z,100042.19
2023-03-29T22:37:47.188Z,100053.53
2023-03-29T22:40:14.903Z,100046.56
2023-03-29T22:42:42.319Z,100050.44
2023-03-29T22:45:10.372Z,100046.94
2023-03-29T22:47:38.220Z,100050.94
2023-03-29T22:50:07.222Z,100056.69
2023-03-29T22:52:34.657Z,100058.78
2023-03-29T22:55:02.416Z,100048.31
2023-03-29T22:57:29.901Z,100059.75
2023-03-29T22:59:57.371Z,100053.69
2023-03-29T23:02:25.219Z,100056.09
2023-03-29T23:04:52.760Z,100053.25
2023-03-29T23:07:20.776Z,100044.84
2023-03-29T23:09:48.651Z,100053.41
2023-03-29T23:12:16.262Z,100050.94
2023-03-29T23:14:45.183Z,100045.88
2023-03-29T23:17:13.524Z,100052.56
2023-03-29T23:19:41.637Z,100045.00
2023-03-29T23:22:09.112Z,100040.63
2023-03-29T23:24:36.865Z,100043.41
2023-03-29T23:27:05.591Z,100049.12
2023-03-29T23:29:34.515Z,100050.22
2023-03-29T23:32:02.793Z,100044.00
2023-03-29T23:34:30.671Z,100043.84
2023-03-29T23:36:58.268Z,100041.44
2023-03-29T23:39:25.925Z,100046.81
2023-03-29T23:41:53.331Z,100040.94
2023-03-29T23:44:20.711Z,100042.06
2023-03-29T23:46:48.477Z,100048.00
2023-03-29T23:49:17.238Z,100048.03
2023-03-29T23:51:45.050Z,100040.06
2023-03-29T23:54:12.962Z,100036.22
2023-03-29T23:56:40.436Z,100034.50
2023-03-29T23:59:07.851Z,100037.16
